sensor_id;sensor_type;location;lat;lon;timestamp;P1;durP1;ratioP1;P2;durP2;ratioP2
29370;SDS011;16357;52.188;7.838;2022-10-19T00:01:29;3.90;;;1.95;;
29370;SDS011;16357;52.188;7.838;2022-10-19T00:03:56;3.95;;;1.88;;
29370;SDS011;16357;52.188;7.838;2022-10-19T00:06:24;4.05;;;1.85;;
29370;SDS011;16357;52.188;7.838;2022-10-19T00:08:54;3.72;;;1.65;;
29370;SDS011;16357;52.188;7.838;2022-10-19T00:11:22;4.78;;;1.50;;
29370;SDS011;16357;52.188;7.838;2022-10-19T00:13:49;2.83;;;1.58;;
29370;SDS011;16357;52.188;7.838;2022-10-19T00:16:16;5.00;;;1.80;;
29370;SDS011;16357;52.188;7.838;2022-10-19T00:18:44;3.72;;;1.88;;
29370;SDS011;16357;52.188;7.838;2022-10-19T00:21:12;3.80;;;1.80;;
29370;SDS011;16357;52.188;7.838;2022-10-19T00:23:41;2.72;;;1.73;;
29370;SDS011;16357;52.188;7.838;2022-10-19T00:26:07;4.13;;;2.08;;
29370;SDS011;16357;52.188;7.838;2022-10-19T00:28:34;5.93;;;1.80;;
29370;SDS011;16357;52.188;7.838;2022-10-19T00:31:05;2.95;;;1.88;;
29370;SDS011;16357;52.188;7.838;2022-10-19T00:33:33;5.57;;;2.47;;
29370;SDS011;16357;52.188;7.838;2022-10-19T00:36:00;4.57;;;2.30;;
29370;SDS011;16357;52.188;7.838;2022-10-19T00:38:27;4.38;;;2.25;;
29370;SDS011;16357;52.188;7.838;2022-10-19T00:40:54;3.65;;;2.20;;
29370;SDS011;16357;52.188;7.838;2022-10-19T00:43:25;7.65;;;2.25;;
29370;SDS011;16357;52.188;7.838;2022-10-19T00:45:53;3.40;;;2.08;;
29370;SDS011;16357;52.188;7.838;2022-10-19T00:48:23;4.72;;;2.30;;
29370;SDS011;16357;52.188;7.838;2022-10-19T00:50:53;3.67;;;2.20;;
29370;SDS011;16357;52.188;7.838;2022-10-19T00:53:23;7.82;;;2.50;;
29370;SDS011;16357;52.188;7.838;2022-10-19T00:55:52;4.68;;;2.25;;
29370;SDS011;16357;52.188;7.838;2022-10-19T00:58:19;12.18;;;2.40;;
29370;SDS011;16357;52.188;7.838;2022-10-19T01:00:45;6.80;;;2.47;;
29370;SDS011;16357;52.188;7.838;2022-10-19T01:03:12;3.70;;;2.08;;
29370;SDS011;16357;52.188;7.838;2022-10-19T01:05:39;7.10;;;2.90;;
29370;SDS011;16357;52.188;7.838;2022-10-19T01:08:06;3.70;;;2.50;;
29370;SDS011;16357;52.188;7.838;2022-10-19T01:10:51;8.32;;;2.95;;
29370;SDS011;16357;52.188;7.838;2022-10-19T01:16:34;6.85;;;2.83;;
29370;SDS011;16357;52.188;7.838;2022-10-19T01:27:52;5.30;;;2.53;;
29370;SDS011;16357;52.188;7.838;2022-10-19T01:30:36;6.07;;;2.30;;
29370;SDS011;16357;52.188;7.838;2022-10-19T01:33:17;6.32;;;2.40;;
29370;SDS011;16357;52.188;7.838;2022-10-19T01:38:52;7.13;;;2.70;;
29370;SDS011;16357;52.188;7.838;2022-10-19T01:41:28;4.80;;;2.83;;
29370;SDS011;16357;52.188;7.838;2022-10-19T01:44:02;4.95;;;2.50;;
29370;SDS011;16357;52.188;7.838;2022-10-19T01:46:39;5.20;;;2.17;;
29370;SDS011;16357;52.188;7.838;2022-10-19T01:49:13;4.30;;;2.20;;
29370;SDS011;16357;52.188;7.838;2022-10-19T01:51:42;3.60;;;2.10;;
29370;SDS011;16357;52.188;7.838;2022-10-19T01:54:15;3.90;;;2.17;;
29370;SDS011;16357;52.188;7.838;2022-10-19T01:56:44;2.22;;;1.70;;
29370;SDS011;16357;52.188;7.838;2022-10-19T01:59:13;5.45;;;1.90;;
29370;SDS011;16357;52.188;7.838;2022-10-19T02:01:43;7.00;;;1.83;;
29370;SDS011;16357;52.188;7.838;2022-10-19T02:04:13;5.10;;;1.77;;
29370;SDS011;16357;52.188;7.838;2022-10-19T02:06:43;2.47;;;1.80;;
29370;SDS011;16357;52.188;7.838;2022-10-19T02:09:10;3.13;;;1.85;;
29370;SDS011;16357;52.188;7.838;2022-10-19T02:11:44;1.95;;;1.55;;
29370;SDS011;16357;52.188;7.838;2022-10-19T02:14:16;4.13;;;2.20;;
29370;SDS011;16357;52.188;7.838;2022-10-19T02:16:51;3.45;;;1.98;;
29370;SDS011;16357;52.188;7.838;2022-10-19T02:19:24;2.80;;;1.95;;
29370;SDS011;16357;52.188;7.838;2022-10-19T02:21:50;3.58;;;1.92;;
29370;SDS011;16357;52.188;7.838;2022-10-19T02:24:17;4.00;;;2.28;;
29370;SDS011;16357;52.188;7.838;2022-10-19T02:26:43;4.10;;;2.70;;
29370;SDS011;16357;52.188;7.838;2022-10-19T02:29:11;4.90;;;2.13;;
29370;SDS011;16357;52.188;7.838;2022-10-19T02:31:40;6.65;;;2.40;;
29370;SDS011;16357;52.188;7.838;2022-10-19T02:34:06;3.35;;;2.03;;
29370;SDS011;16357;52.188;7.838;2022-10-19T02:36:33;3.35;;;2.25;;
29370;SDS011;16357;52.188;7.838;2022-10-19T02:38:59;3.63;;;2.05;;
29370;SDS011;16357;52.188;7.838;2022-10-19T02:44:09;5.50;;;2.20;;
29370;SDS011;16357;52.188;7.838;2022-10-19T02:46:43;3.75;;;2.08;;
29370;SDS011;16357;52.188;7.838;2022-10-19T02:49:13;3.08;;;1.77;;
29370;SDS011;16357;52.188;7.838;2022-10-19T02:52:00;3.80;;;2.25;;
29370;SDS011;16357;52.188;7.838;2022-10-19T02:54:29;3.22;;;2.13;;
29370;SDS011;16357;52.188;7.838;2022-10-19T02:56:56;3.97;;;2.05;;
29370;SDS011;16357;52.188;7.838;2022-10-19T02:59:22;2.63;;;2.28;;
29370;SDS011;16357;52.188;7.838;2022-10-19T03:01:49;5.80;;;2.33;;
29370;SDS011;16357;52.188;7.838;2022-10-19T03:04:16;3.88;;;2.20;;
29370;SDS011;16357;52.188;7.838;2022-10-19T03:06:43;7.30;;;2.50;;
29370;SDS011;16357;52.188;7.838;2022-10-19T03:09:10;4.85;;;1.70;;
29370;SDS011;16357;52.188;7.838;2022-10-19T03:11:36;3.47;;;1.80;;
29370;SDS011;16357;52.188;7.838;2022-10-19T03:14:03;3.33;;;1.67;;
29370;SDS011;16357;52.188;7.838;2022-10-19T03:16:29;2.70;;;2.03;;
29370;SDS011;16357;52.188;7.838;2022-10-19T03:18:55;4.43;;;2.70;;
29370;SDS011;16357;52.188;7.838;2022-10-19T03:21:22;4.22;;;2.55;;
29370;SDS011;16357;52.188;7.838;2022-10-19T03:23:48;12.18;;;3.00;;
29370;SDS011;16357;52.188;7.838;2022-10-19T03:26:15;5.75;;;2.83;;
29370;SDS011;16357;52.188;7.838;2022-10-19T03:28:42;5.03;;;2.30;;
29370;SDS011;16357;52.188;7.838;2022-10-19T03:31:09;5.18;;;2.30;;
29370;SDS011;16357;52.188;7.838;2022-10-19T03:33:35;3.42;;;2.30;;
29370;SDS011;16357;52.188;7.838;2022-10-19T03:41:15;4.55;;;2.28;;
29370;SDS011;16357;52.188;7.838;2022-10-19T03:43:42;4.47;;;2.47;;
29370;SDS011;16357;52.188;7.838;2022-10-19T03:46:08;4.47;;;2.53;;
29370;SDS011;16357;52.188;7.838;2022-10-19T03:48:34;4.75;;;2.60;;
29370;SDS011;16357;52.188;7.838;2022-10-19T03:51:05;6.78;;;2.67;;
29370;SDS011;16357;52.188;7.838;2022-10-19T03:53:34;4.95;;;2.45;;
29370;SDS011;16357;52.188;7.838;2022-10-19T03:56:02;6.80;;;2.80;;
29370;SDS011;16357;52.188;7.838;2022-10-19T03:58:31;3.78;;;2.10;;
29370;SDS011;16357;52.188;7.838;2022-10-19T04:00:58;5.78;;;2.97;;
29370;SDS011;16357;52.188;7.838;2022-10-19T04:03:25;6.30;;;2.40;;
29370;SDS011;16357;52.188;7.838;2022-10-19T04:05:52;3.20;;;2.50;;
29370;SDS011;16357;52.188;7.838;2022-10-19T04:08:27;6.43;;;2.60;;
29370;SDS011;16357;52.188;7.838;2022-10-19T04:10:59;3.80;;;2.80;;
29370;SDS011;16357;52.188;7.838;2022-10-19T04:13:33;3.58;;;2.53;;
29370;SDS011;16357;52.188;7.838;2022-10-19T04:16:00;6.65;;;2.80;;
29370;SDS011;16357;52.188;7.838;2022-10-19T04:18:27;8.23;;;2.72;;
29370;SDS011;16357;52.188;7.838;2022-10-19T04:20:57;5.32;;;2.63;;
29370;SDS011;16357;52.188;7.838;2022-10-19T04:23:26;3.40;;;2.33;;
29370;SDS011;16357;52.188;7.838;2022-10-19T04:28:28;4.93;;;2.78;;
29370;SDS011;16357;52.188;7.838;2022-10-19T04:30:55;3.80;;;2.53;;
29370;SDS011;16357;52.188;7.838;2022-10-19T04:33:21;3.13;;;2.40;;
29370;SDS011;16357;52.188;7.838;2022-10-19T04:35:48;5.40;;;2.70;;
29370;SDS011;16357;52.188;7.838;2022-10-19T04:38:15;4.05;;;3.00;;
29370;SDS011;16357;52.188;7.838;2022-10-19T04:40:41;6.63;;;2.60;;
29370;SDS011;16357;52.188;7.838;2022-10-19T04:43:07;6.03;;;2.83;;
29370;SDS011;16357;52.188;7.838;2022-10-19T04:45:34;5.82;;;2.92;;
29370;SDS011;16357;52.188;7.838;2022-10-19T04:48:01;4.45;;;2.40;;
29370;SDS011;16357;52.188;7.838;2022-10-19T04:50:27;8.38;;;2.95;;
29370;SDS011;16357;52.188;7.838;2022-10-19T04:52:53;7.45;;;3.28;;
29370;SDS011;16357;52.188;7.838;2022-10-19T04:55:20;3.85;;;2.80;;
29370;SDS011;16357;52.188;7.838;2022-10-19T04:57:46;6.35;;;2.80;;
29370;SDS011;16357;52.188;7.838;2022-10-19T05:00:13;2.88;;;2.22;;
29370;SDS011;16357;52.188;7.838;2022-10-19T05:02:43;8.35;;;2.58;;
29370;SDS011;16357;52.188;7.838;2022-10-19T05:05:11;3.22;;;2.78;;
29370;SDS011;16357;52.188;7.838;2022-10-19T05:07:38;3.85;;;2.88;;
29370;SDS011;16357;52.188;7.838;2022-10-19T05:10:06;4.95;;;2.80;;
29370;SDS011;16357;52.188;7.838;2022-10-19T05:12:33;7.47;;;3.28;;
29370;SDS011;16357;52.188;7.838;2022-10-19T05:15:00;5.50;;;2.58;;
29370;SDS011;16357;52.188;7.838;2022-10-19T05:17:30;4.57;;;2.53;;
29370;SDS011;16357;52.188;7.838;2022-10-19T05:19:57;7.00;;;2.97;;
29370;SDS011;16357;52.188;7.838;2022-10-19T05:22:24;9.15;;;3.67;;
29370;SDS011;16357;52.188;7.838;2022-10-19T05:24:50;4.88;;;3.17;;
29370;SDS011;16357;52.188;7.838;2022-10-19T05:27:22;4.57;;;3.15;;
29370;SDS011;16357;52.188;7.838;2022-10-19T05:29:48;6.75;;;2.90;;
29370;SDS011;16357;52.188;7.838;2022-10-19T05:32:15;5.13;;;2.58;;
29370;SDS011;16357;52.188;7.838;2022-10-19T05:34:41;4.20;;;2.55;;
29370;SDS011;16357;52.188;7.838;2022-10-19T05:37:08;3.55;;;2.70;;
29370;SDS011;16357;52.188;7.838;2022-10-19T05:39:34;4.15;;;2.53;;
29370;SDS011;16357;52.188;7.838;2022-10-19T05:42:01;6.03;;;2.75;;
29370;SDS011;16357;52.188;7.838;2022-10-19T05:44:27;11.38;;;2.28;;
29370;SDS011;16357;52.188;7.838;2022-10-19T05:46:53;3.95;;;2.83;;
29370;SDS011;16357;52.188;7.838;2022-10-19T05:49:20;6.95;;;2.72;;
29370;SDS011;16357;52.188;7.838;2022-10-19T05:51:47;4.72;;;2.20;;
29370;SDS011;16357;52.188;7.838;2022-10-19T05:54:15;7.00;;;2.55;;
29370;SDS011;16357;52.188;7.838;2022-10-19T05:56:42;6.90;;;2.20;;
29370;SDS011;16357;52.188;7.838;2022-10-19T05:59:11;6.03;;;2.13;;
29370;SDS011;16357;52.188;7.838;2022-10-19T06:01:40;4.75;;;2.28;;
29370;SDS011;16357;52.188;7.838;2022-10-19T06:04:06;6.50;;;2.63;;
29370;SDS011;16357;52.188;7.838;2022-10-19T06:06:33;3.53;;;2.30;;
29370;SDS011;16357;52.188;7.838;2022-10-19T06:08:59;8.82;;;2.67;;
29370;SDS011;16357;52.188;7.838;2022-10-19T06:11:27;5.22;;;2.70;;
29370;SDS011;16357;52.188;7.838;2022-10-19T06:14:00;6.05;;;2.65;;
29370;SDS011;16357;52.188;7.838;2022-10-19T06:16:29;4.72;;;2.42;;
29370;SDS011;16357;52.188;7.838;2022-10-19T06:18:57;4.60;;;2.15;;
29370;SDS011;16357;52.188;7.838;2022-10-19T06:21:26;6.95;;;2.85;;
29370;SDS011;16357;52.188;7.838;2022-10-19T06:23:55;5.18;;;2.65;;
29370;SDS011;16357;52.188;7.838;2022-10-19T06:26:23;6.40;;;2.65;;
29370;SDS011;16357;52.188;7.838;2022-10-19T06:28:50;10.70;;;3.00;;
29370;SDS011;16357;52.188;7.838;2022-10-19T06:31:19;6.95;;;2.83;;
29370;SDS011;16357;52.188;7.838;2022-10-19T06:33:45;6.30;;;3.08;;
29370;SDS011;16357;52.188;7.838;2022-10-19T06:36:16;5.68;;;2.90;;
29370;SDS011;16357;52.188;7.838;2022-10-19T06:38:44;5.70;;;3.05;;
29370;SDS011;16357;52.188;7.838;2022-10-19T06:41:11;8.38;;;3.03;;
29370;SDS011;16357;52.188;7.838;2022-10-19T06:43:38;6.65;;;2.70;;
29370;SDS011;16357;52.188;7.838;2022-10-19T06:46:05;4.57;;;2.70;;
29370;SDS011;16357;52.188;7.838;2022-10-19T06:48:36;6.93;;;3.20;;
29370;SDS011;16357;52.188;7.838;2022-10-19T06:51:03;7.90;;;3.20;;
29370;SDS011;16357;52.188;7.838;2022-10-19T06:53:33;6.07;;;3.20;;
29370;SDS011;16357;52.188;7.838;2022-10-19T06:56:01;7.63;;;3.47;;
29370;SDS011;16357;52.188;7.838;2022-10-19T06:58:29;6.47;;;3.17;;
29370;SDS011;16357;52.188;7.838;2022-10-19T07:00:56;9.30;;;4.28;;
29370;SDS011;16357;52.188;7.838;2022-10-19T07:03:24;10.60;;;3.17;;
29370;SDS011;16357;52.188;7.838;2022-10-19T07:05:55;6.70;;;3.13;;
29370;SDS011;16357;52.188;7.838;2022-10-19T07:08:26;7.78;;;3.25;;
29370;SDS011;16357;52.188;7.838;2022-10-19T07:10:55;5.40;;;2.95;;
29370;SDS011;16357;52.188;7.838;2022-10-19T07:13:23;7.43;;;3.22;;
29370;SDS011;16357;52.188;7.838;2022-10-19T07:15:57;5.30;;;3.03;;
29370;SDS011;16357;52.188;7.838;2022-10-19T07:18:24;3.50;;;2.72;;
29370;SDS011;16357;52.188;7.838;2022-10-19T07:20:58;6.40;;;3.00;;
29370;SDS011;16357;52.188;7.838;2022-10-19T07:23:26;5.15;;;3.05;;
29370;SDS011;16357;52.188;7.838;2022-10-19T07:25:54;8.57;;;3.25;;
29370;SDS011;16357;52.188;7.838;2022-10-19T07:28:26;7.75;;;2.65;;
29370;SDS011;16357;52.188;7.838;2022-10-19T07:30:54;6.63;;;3.10;;
29370;SDS011;16357;52.188;7.838;2022-10-19T07:33:21;8.70;;;2.65;;
29370;SDS011;16357;52.188;7.838;2022-10-19T07:35:47;4.43;;;2.72;;
29370;SDS011;16357;52.188;7.838;2022-10-19T07:38:14;9.48;;;3.10;;
29370;SDS011;16357;52.188;7.838;2022-10-19T07:40:40;6.43;;;3.22;;
29370;SDS011;16357;52.188;7.838;2022-10-19T07:43:12;4.13;;;3.00;;
29370;SDS011;16357;52.188;7.838;2022-10-19T07:45:38;5.80;;;2.78;;
29370;SDS011;16357;52.188;7.838;2022-10-19T07:48:05;4.95;;;2.58;;
29370;SDS011;16357;52.188;7.838;2022-10-19T07:50:31;7.03;;;3.35;;
29370;SDS011;16357;52.188;7.838;2022-10-19T07:52:58;7.82;;;3.72;;
29370;SDS011;16357;52.188;7.838;2022-10-19T07:55:24;5.15;;;3.10;;
29370;SDS011;16357;52.188;7.838;2022-10-19T07:57:50;5.93;;;2.92;;
29370;SDS011;16357;52.188;7.838;2022-10-19T08:00:17;6.28;;;3.35;;
29370;SDS011;16357;52.188;7.838;2022-10-19T08:02:43;6.00;;;3.22;;
29370;SDS011;16357;52.188;7.838;2022-10-19T08:07:59;4.45;;;2.90;;
29370;SDS011;16357;52.188;7.838;2022-10-19T08:10:26;7.03;;;3.17;;
29370;SDS011;16357;52.188;7.838;2022-10-19T08:12:52;6.90;;;2.95;;
29370;SDS011;16357;52.188;7.838;2022-10-19T08:15:19;5.55;;;2.55;;
29370;SDS011;16357;52.188;7.838;2022-10-19T08:17:45;5.85;;;2.42;;
29370;SDS011;16357;52.188;7.838;2022-10-19T08:20:12;3.30;;;2.00;;
29370;SDS011;16357;52.188;7.838;2022-10-19T08:22:44;6.68;;;2.10;;
29370;SDS011;16357;52.188;7.838;2022-10-19T08:25:11;6.00;;;1.90;;
29370;SDS011;16357;52.188;7.838;2022-10-19T08:27:38;7.55;;;2.00;;
29370;SDS011;16357;52.188;7.838;2022-10-19T08:30:04;7.47;;;2.05;;
29370;SDS011;16357;52.188;7.838;2022-10-19T08:32:31;5.85;;;1.90;;
29370;SDS011;16357;52.188;7.838;2022-10-19T08:34:58;9.05;;;2.10;;
29370;SDS011;16357;52.188;7.838;2022-10-19T08:37:24;6.38;;;1.60;;
29370;SDS011;16357;52.188;7.838;2022-10-19T08:40:21;6.85;;;1.85;;
29370;SDS011;16357;52.188;7.838;2022-10-19T08:42:52;6.03;;;2.20;;
29370;SDS011;16357;52.188;7.838;2022-10-19T08:45:32;5.75;;;2.25;;
29370;SDS011;16357;52.188;7.838;2022-10-19T08:50:45;5.55;;;2.00;;
29370;SDS011;16357;52.188;7.838;2022-10-19T08:53:17;7.85;;;2.20;;
29370;SDS011;16357;52.188;7.838;2022-10-19T08:58:26;7.07;;;2.00;;
29370;SDS011;16357;52.188;7.838;2022-10-19T09:01:14;7.53;;;2.05;;
29370;SDS011;16357;52.188;7.838;2022-10-19T09:03:51;7.15;;;2.22;;
29370;SDS011;16357;52.188;7.838;2022-10-19T09:06:33;4.05;;;2.25;;
29370;SDS011;16357;52.188;7.838;2022-10-19T09:09:13;9.05;;;2.33;;
29370;SDS011;16357;52.188;7.838;2022-10-19T09:11:41;11.02;;;2.28;;
29370;SDS011;16357;52.188;7.838;2022-10-19T09:14:13;11.65;;;2.22;;
29370;SDS011;16357;52.188;7.838;2022-10-19T09:16:45;5.50;;;2.25;;
29370;SDS011;16357;52.188;7.838;2022-10-19T09:19:22;5.82;;;2.30;;
29370;SDS011;16357;52.188;7.838;2022-10-19T09:21:56;5.03;;;2.20;;
29370;SDS011;16357;52.188;7.838;2022-10-19T09:24:31;8.77;;;2.63;;
29370;SDS011;16357;52.188;7.838;2022-10-19T09:27:20;6.22;;;2.15;;
29370;SDS011;16357;52.188;7.838;2022-10-19T09:30:02;10.50;;;2.45;;
29370;SDS011;16357;52.188;7.838;2022-10-19T09:32:34;8.13;;;2.50;;
29370;SDS011;16357;52.188;7.838;2022-10-19T09:35:23;5.05;;;2.35;;
29370;SDS011;16357;52.188;7.838;2022-10-19T09:38:01;11.27;;;2.45;;
29370;SDS011;16357;52.188;7.838;2022-10-19T09:40:31;5.47;;;2.50;;
29370;SDS011;16357;52.188;7.838;2022-10-19T09:42:58;7.38;;;2.47;;
29370;SDS011;16357;52.188;7.838;2022-10-19T09:48:03;8.18;;;2.55;;
29370;SDS011;16357;52.188;7.838;2022-10-19T09:50:42;6.63;;;2.05;;
29370;SDS011;16357;52.188;7.838;2022-10-19T09:53:16;5.55;;;2.22;;
29370;SDS011;16357;52.188;7.838;2022-10-19T09:56:04;8.55;;;2.20;;
29370;SDS011;16357;52.188;7.838;2022-10-19T09:58:33;5.18;;;2.00;;
29370;SDS011;16357;52.188;7.838;2022-10-19T10:01:27;6.53;;;2.55;;
29370;SDS011;16357;52.188;7.838;2022-10-19T10:04:15;3.88;;;1.70;;
29370;SDS011;16357;52.188;7.838;2022-10-19T10:06:43;5.93;;;1.80;;
29370;SDS011;16357;52.188;7.838;2022-10-19T10:09:14;7.75;;;2.00;;
29370;SDS011;16357;52.188;7.838;2022-10-19T10:11:43;6.95;;;1.83;;
29370;SDS011;16357;52.188;7.838;2022-10-19T10:14:16;8.10;;;1.52;;
29370;SDS011;16357;52.188;7.838;2022-10-19T10:16:46;6.20;;;1.77;;
29370;SDS011;16357;52.188;7.838;2022-10-19T10:19:14;3.80;;;1.67;;
29370;SDS011;16357;52.188;7.838;2022-10-19T10:21:49;6.22;;;1.90;;
29370;SDS011;16357;52.188;7.838;2022-10-19T10:24:20;4.43;;;2.38;;
29370;SDS011;16357;52.188;7.838;2022-10-19T10:26:52;5.50;;;1.98;;
29370;SDS011;16357;52.188;7.838;2022-10-19T10:31:54;6.07;;;1.83;;
29370;SDS011;16357;52.188;7.838;2022-10-19T10:37:17;3.55;;;1.35;;
29370;SDS011;16357;52.188;7.838;2022-10-19T10:39:49;7.07;;;1.48;;
29370;SDS011;16357;52.188;7.838;2022-10-19T10:42:18;3.00;;;1.40;;
29370;SDS011;16357;52.188;7.838;2022-10-19T10:44:52;5.78;;;1.58;;
29370;SDS011;16357;52.188;7.838;2022-10-19T10:47:21;4.60;;;1.50;;
29370;SDS011;16357;52.188;7.838;2022-10-19T10:49:52;7.28;;;1.75;;
29370;SDS011;16357;52.188;7.838;2022-10-19T10:52:28;5.53;;;1.75;;
29370;SDS011;16357;52.188;7.838;2022-10-19T10:55:00;6.40;;;1.73;;
29370;SDS011;16357;52.188;7.838;2022-10-19T10:57:40;3.97;;;1.70;;
29370;SDS011;16357;52.188;7.838;2022-10-19T11:00:18;4.35;;;1.67;;
29370;SDS011;16357;52.188;7.838;2022-10-19T11:05:15;3.97;;;1.73;;
29370;SDS011;16357;52.188;7.838;2022-10-19T11:07:46;5.68;;;2.25;;
29370;SDS011;16357;52.188;7.838;2022-10-19T11:10:29;6.32;;;2.58;;
29370;SDS011;16357;52.188;7.838;2022-10-19T11:16:01;5.88;;;2.50;;
29370;SDS011;16357;52.188;7.838;2022-10-19T11:21:35;6.63;;;2.50;;
29370;SDS011;16357;52.188;7.838;2022-10-19T11:27:04;4.60;;;1.98;;
29370;SDS011;16357;52.188;7.838;2022-10-19T11:30:23;5.70;;;2.15;;
29370;SDS011;16357;52.188;7.838;2022-10-19T11:52:06;5.68;;;1.80;;
29370;SDS011;16357;52.188;7.838;2022-10-19T11:57:36;5.57;;;1.75;;
29370;SDS011;16357;52.188;7.838;2022-10-19T12:14:17;7.75;;;2.03;;
29370;SDS011;16357;52.188;7.838;2022-10-19T12:16:49;5.07;;;1.85;;
29370;SDS011;16357;52.188;7.838;2022-10-19T12:19:21;7.70;;;2.00;;
29370;SDS011;16357;52.188;7.838;2022-10-19T12:22:02;8.05;;;2.03;;
29370;SDS011;16357;52.188;7.838;2022-10-19T12:24:32;5.50;;;1.75;;
29370;SDS011;16357;52.188;7.838;2022-10-19T12:26:59;7.68;;;2.03;;
29370;SDS011;16357;52.188;7.838;2022-10-19T12:29:28;4.75;;;1.75;;
29370;SDS011;16357;52.188;7.838;2022-10-19T12:32:02;4.20;;;2.00;;
29370;SDS011;16357;52.188;7.838;2022-10-19T12:34:45;7.13;;;2.33;;
29370;SDS011;16357;52.188;7.838;2022-10-19T12:43:11;6.20;;;1.63;;
29370;SDS011;16357;52.188;7.838;2022-10-19T12:45:43;4.75;;;1.77;;
29370;SDS011;16357;52.188;7.838;2022-10-19T12:48:17;5.47;;;1.80;;
29370;SDS011;16357;52.188;7.838;2022-10-19T12:53:22;3.83;;;1.30;;
29370;SDS011;16357;52.188;7.838;2022-10-19T12:58:33;5.95;;;1.90;;
29370;SDS011;16357;52.188;7.838;2022-10-19T13:03:53;6.22;;;1.60;;
29370;SDS011;16357;52.188;7.838;2022-10-19T13:06:33;7.50;;;1.60;;
29370;SDS011;16357;52.188;7.838;2022-10-19T13:09:03;5.30;;;1.60;;
29370;SDS011;16357;52.188;7.838;2022-10-19T13:11:31;5.93;;;1.30;;
29370;SDS011;16357;52.188;7.838;2022-10-19T13:24:30;5.57;;;1.60;;
29370;SDS011;16357;52.188;7.838;2022-10-19T13:43:25;5.50;;;1.17;;
29370;SDS011;16357;52.188;7.838;2022-10-19T13:45:55;4.05;;;1.40;;
29370;SDS011;16357;52.188;7.838;2022-10-19T13:48:33;5.00;;;1.25;;
29370;SDS011;16357;52.188;7.838;2022-10-19T13:51:15;3.05;;;1.30;;
29370;SDS011;16357;52.188;7.838;2022-10-19T13:56:56;4.97;;;1.20;;
29370;SDS011;16357;52.188;7.838;2022-10-19T13:59:57;4.07;;;1.30;;
29370;SDS011;16357;52.188;7.838;2022-10-19T14:05:44;5.30;;;1.27;;
29370;SDS011;16357;52.188;7.838;2022-10-19T14:11:13;5.05;;;1.30;;
29370;SDS011;16357;52.188;7.838;2022-10-19T14:13:42;4.65;;;1.42;;
29370;SDS011;16357;52.188;7.838;2022-10-19T14:16:16;6.00;;;1.30;;
29370;SDS011;16357;52.188;7.838;2022-10-19T14:18:53;7.78;;;1.67;;
29370;SDS011;16357;52.188;7.838;2022-10-19T14:21:39;3.15;;;1.13;;
29370;SDS011;16357;52.188;7.838;2022-10-19T14:24:19;3.60;;;1.23;;
29370;SDS011;16357;52.188;7.838;2022-10-19T14:27:04;5.25;;;1.25;;
29370;SDS011;16357;52.188;7.838;2022-10-19T14:29:34;8.25;;;1.80;;
29370;SDS011;16357;52.188;7.838;2022-10-19T14:32:09;5.05;;;1.40;;
29370;SDS011;16357;52.188;7.838;2022-10-19T14:34:40;4.60;;;1.50;;
29370;SDS011;16357;52.188;7.838;2022-10-19T14:37:16;5.95;;;1.35;;
29370;SDS011;16357;52.188;7.838;2022-10-19T14:39:55;5.70;;;1.30;;
29370;SDS011;16357;52.188;7.838;2022-10-19T14:42:33;3.50;;;1.02;;
29370;SDS011;16357;52.188;7.838;2022-10-19T14:45:08;3.70;;;1.25;;
29370;SDS011;16357;52.188;7.838;2022-10-19T14:47:37;5.32;;;1.05;;
29370;SDS011;16357;52.188;7.838;2022-10-19T14:50:16;4.00;;;1.42;;
29370;SDS011;16357;52.188;7.838;2022-10-19T14:52:43;4.78;;;1.30;;
29370;SDS011;16357;52.188;7.838;2022-10-19T14:55:12;3.75;;;1.40;;
29370;SDS011;16357;52.188;7.838;2022-10-19T14:57:43;4.70;;;1.25;;
29370;SDS011;16357;52.188;7.838;2022-10-19T15:00:20;4.40;;;1.38;;
29370;SDS011;16357;52.188;7.838;2022-10-19T15:03:00;4.80;;;1.40;;
29370;SDS011;16357;52.188;7.838;2022-10-19T15:05:35;5.13;;;1.38;;
29370;SDS011;16357;52.188;7.838;2022-10-19T15:08:18;1.75;;;1.10;;
29370;SDS011;16357;52.188;7.838;2022-10-19T15:10:52;8.00;;;1.35;;
29370;SDS011;16357;52.188;7.838;2022-10-19T15:13:24;5.45;;;1.42;;
29370;SDS011;16357;52.188;7.838;2022-10-19T15:15:53;8.10;;;1.80;;
29370;SDS011;16357;52.188;7.838;2022-10-19T15:18:21;4.15;;;1.33;;
29370;SDS011;16357;52.188;7.838;2022-10-19T15:23:43;3.55;;;1.50;;
29370;SDS011;16357;52.188;7.838;2022-10-19T15:28:43;7.05;;;2.08;;
29370;SDS011;16357;52.188;7.838;2022-10-19T15:31:28;4.13;;;1.42;;
29370;SDS011;16357;52.188;7.838;2022-10-19T15:33:59;3.58;;;1.30;;
29370;SDS011;16357;52.188;7.838;2022-10-19T15:36:27;3.15;;;1.52;;
29370;SDS011;16357;52.188;7.838;2022-10-19T15:39:05;5.95;;;1.35;;
29370;SDS011;16357;52.188;7.838;2022-10-19T15:41:49;4.85;;;1.60;;
29370;SDS011;16357;52.188;7.838;2022-10-19T15:47:19;6.28;;;2.03;;
29370;SDS011;16357;52.188;7.838;2022-10-19T15:54:49;3.90;;;1.45;;
29370;SDS011;16357;52.188;7.838;2022-10-19T15:59:59;6.45;;;2.10;;
29370;SDS011;16357;52.188;7.838;2022-10-19T16:02:31;7.30;;;2.03;;
29370;SDS011;16357;52.188;7.838;2022-10-19T16:04:58;6.22;;;1.75;;
29370;SDS011;16357;52.188;7.838;2022-10-19T16:07:25;8.07;;;1.98;;
29370;SDS011;16357;52.188;7.838;2022-10-19T16:09:54;3.47;;;1.60;;
29370;SDS011;16357;52.188;7.838;2022-10-19T16:12:21;5.45;;;1.60;;
29370;SDS011;16357;52.188;7.838;2022-10-19T16:14:48;4.20;;;1.65;;
29370;SDS011;16357;52.188;7.838;2022-10-19T16:17:14;4.57;;;1.80;;
29370;SDS011;16357;52.188;7.838;2022-10-19T16:19:41;4.82;;;1.52;;
29370;SDS011;16357;52.188;7.838;2022-10-19T16:22:09;8.18;;;1.67;;
29370;SDS011;16357;52.188;7.838;2022-10-19T16:24:36;3.40;;;1.60;;
29370;SDS011;16357;52.188;7.838;2022-10-19T16:27:03;5.53;;;1.88;;
29370;SDS011;16357;52.188;7.838;2022-10-19T16:29:30;4.82;;;1.77;;
29370;SDS011;16357;52.188;7.838;2022-10-19T16:31:57;7.50;;;1.85;;
29370;SDS011;16357;52.188;7.838;2022-10-19T16:34:24;7.63;;;1.70;;
29370;SDS011;16357;52.188;7.838;2022-10-19T16:36:50;6.57;;;1.65;;
29370;SDS011;16357;52.188;7.838;2022-10-19T16:39:16;6.88;;;1.88;;
29370;SDS011;16357;52.188;7.838;2022-10-19T16:41:43;4.78;;;1.70;;
29370;SDS011;16357;52.188;7.838;2022-10-19T16:44:10;7.32;;;2.15;;
29370;SDS011;16357;52.188;7.838;2022-10-19T16:46:37;5.13;;;1.60;;
29370;SDS011;16357;52.188;7.838;2022-10-19T16:49:04;4.88;;;1.83;;
29370;SDS011;16357;52.188;7.838;2022-10-19T16:51:40;3.85;;;1.50;;
29370;SDS011;16357;52.188;7.838;2022-10-19T16:54:08;3.33;;;1.63;;
29370;SDS011;16357;52.188;7.838;2022-10-19T16:56:45;9.25;;;2.15;;
29370;SDS011;16357;52.188;7.838;2022-10-19T16:59:14;5.63;;;2.03;;
29370;SDS011;16357;52.188;7.838;2022-10-19T17:01:42;3.35;;;1.80;;
29370;SDS011;16357;52.188;7.838;2022-10-19T17:04:10;5.47;;;2.08;;
29370;SDS011;16357;52.188;7.838;2022-10-19T17:06:37;5.38;;;1.88;;
29370;SDS011;16357;52.188;7.838;2022-10-19T17:09:03;6.20;;;2.13;;
29370;SDS011;16357;52.188;7.838;2022-10-19T17:11:50;7.75;;;2.35;;
29370;SDS011;16357;52.188;7.838;2022-10-19T17:14:17;5.10;;;1.98;;
29370;SDS011;16357;52.188;7.838;2022-10-19T17:16:43;6.07;;;1.92;;
29370;SDS011;16357;52.188;7.838;2022-10-19T17:19:10;4.30;;;2.10;;
29370;SDS011;16357;52.188;7.838;2022-10-19T17:21:37;5.78;;;1.67;;
29370;SDS011;16357;52.188;7.838;2022-10-19T17:24:05;10.52;;;2.00;;
29370;SDS011;16357;52.188;7.838;2022-10-19T17:26:34;5.25;;;1.75;;
29370;SDS011;16357;52.188;7.838;2022-10-19T17:29:03;8.73;;;2.35;;
29370;SDS011;16357;52.188;7.838;2022-10-19T17:31:31;5.45;;;2.10;;
29370;SDS011;16357;52.188;7.838;2022-10-19T17:33:57;4.78;;;2.00;;
29370;SDS011;16357;52.188;7.838;2022-10-19T17:36:26;7.80;;;2.63;;
29370;SDS011;16357;52.188;7.838;2022-10-19T17:38:54;5.32;;;2.25;;
29370;SDS011;16357;52.188;7.838;2022-10-19T17:41:24;6.65;;;2.40;;
29370;SDS011;16357;52.188;7.838;2022-10-19T17:43:51;8.32;;;2.72;;